createdAt,value
2022-10-24T00:01:26.853Z,43.15
2022-10-24T00:03:54.458Z,42.71
2022-10-24T00:06:22.284Z,42.19
2022-10-24T00:08:50.283Z,41.88
2022-10-24T00:11:26.772Z,42.13
2022-10-24T00:13:57.616Z,42.38
2022-10-24T00:16:25.807Z,42.61
2022-10-24T00:18:53.900Z,43.05
2022-10-24T00:21:21.588Z,43.53
2022-10-24T00:23:49.064Z,43.70
2022-10-24T00:26:17.116Z,43.80
2022-10-24T00:28:44.740Z,44.00
2022-10-24T00:31:20.083Z,44.25
2022-10-24T00:33:47.848Z,44.00
2022-10-24T00:36:21.790Z,44.24
2022-10-24T00:38:51.488Z,44.40
2022-10-24T00:41:37.782Z,44.59
2022-10-24T00:44:27.102Z,44.99
2022-10-24T00:47:20.359Z,44.95
2022-10-24T00:50:12.984Z,45.56
2022-10-24T00:52:47.340Z,45.24
2022-10-24T00:55:15.717Z,45.39
2022-10-24T00:57:56.700Z,45.36
2022-10-24T01:00:31.749Z,45.28
2022-10-24T01:03:00.119Z,44.93
2022-10-24T01:05:40.770Z,45.00
2022-10-24T01:09:02.627Z,44.90
2022-10-24T01:12:15.615Z,44.92
2022-10-24T01:15:35.841Z,44.45
2022-10-24T01:18:39.622Z,44.46
2022-10-24T01:21:52.708Z,44.61
2022-10-24T01:24:50.872Z,44.96
2022-10-24T01:28:05.356Z,45.22
2022-10-24T01:31:19.803Z,45.17
2022-10-24T01:34:16.632Z,45.35
2022-10-24T01:37:05.157Z,45.81
2022-10-24T01:39:48.216Z,45.85
2022-10-24T01:42:22.312Z,45.93
2022-10-24T01:44:57.430Z,46.14
2022-10-24T01:47:46.243Z,46.16
2022-10-24T01:50:17.887Z,46.18
2022-10-24T01:52:47.593Z,46.70
2022-10-24T01:55:15.410Z,47.42
2022-10-24T01:57:42.941Z,47.52
2022-10-24T02:00:22.690Z,47.61
2022-10-24T02:03:18.861Z,47.93
2022-10-24T02:05:56.522Z,47.67
2022-10-24T02:08:38.949Z,47.76
2022-10-24T02:11:08.986Z,47.47
2022-10-24T02:14:18.775Z,47.62
2022-10-24T02:16:46.692Z,47.30
2022-10-24T02:19:14.423Z,47.05
2022-10-24T02:22:23.507Z,46.92
2022-10-24T02:25:22.122Z,46.95
2022-10-24T02:28:13.085Z,46.73
2022-10-24T02:30:52.437Z,47.00
2022-10-24T02:33:21.658Z,46.47
2022-10-24T02:35:50.227Z,46.65
2022-10-24T02:38:36.400Z,46.60
2022-10-24T02:41:12.188Z,46.55
2022-10-24T02:43:43.868Z,47.02
2022-10-24T02:46:13.368Z,51.24
2022-10-24T02:48:56.112Z,54.58
2022-10-24T02:51:34.231Z,56.08
2022-10-24T02:54:03.080Z,55.84
2022-10-24T02:56:31.352Z,55.38
2022-10-24T02:58:58.692Z,54.66
2022-10-24T03:01:27.196Z,56.70
2022-10-24T03:03:54.551Z,57.25
2022-10-24T03:06:21.824Z,58.69
2022-10-24T03:08:49.090Z,56.77
2022-10-24T03:11:16.843Z,56.87
2022-10-24T03:13:44.164Z,59.51
2022-10-24T03:16:14.004Z,57.30
2022-10-24T03:18:41.751Z,58.32
2022-10-24T03:21:09.404Z,58.78
2022-10-24T03:23:36.738Z,58.95
2022-10-24T03:26:04.184Z,58.70
2022-10-24T03:28:31.453Z,56.83
2022-10-24T03:30:58.774Z,59.67
2022-10-24T03:33:26.141Z,55.85
2022-10-24T03:35:55.217Z,56.95
2022-10-24T03:38:24.057Z,55.98
2022-10-24T03:40:51.749Z,55.43
2022-10-24T03:43:20.338Z,55.90
2022-10-24T03:45:47.740Z,53.91
2022-10-24T03:48:15.037Z,53.54
2022-10-24T03:50:42.367Z,55.68
2022-10-24T03:53:09.988Z,54.54
2022-10-24T03:55:37.364Z,54.17
2022-10-24T03:58:04.801Z,54.95
2022-10-24T04:00:35.085Z,54.53
2022-10-24T04:03:02.443Z,53.75
2022-10-24T04:05:29.734Z,53.84
2022-10-24T04:07:57.057Z,53.83
2022-10-24T04:10:24.321Z,53.20
2022-10-24T04:12:51.586Z,52.85
2022-10-24T04:15:19.191Z,52.98
2022-10-24T04:17:47.264Z,51.92
2022-10-24T04:20:19.418Z,51.74
2022-10-24T04:22:48.032Z,52.54
2022-10-24T04:25:17.132Z,51.73
2022-10-24T04:27:45.561Z,51.54
2022-10-24T04:30:16.609Z,51.50
2022-10-24T04:32:45.367Z,51.16
2022-10-24T04:35:14.158Z,52.00
2022-10-24T04:37:41.544Z,51.24
2022-10-24T04:40:10.285Z,51.53
2022-10-24T04:42:37.575Z,51.75
2022-10-24T04:45:06.479Z,52.62
2022-10-24T04:47:34.637Z,53.13
2022-10-24T04:50:02.165Z,54.33
2022-10-24T04:52:29.464Z,54.87
2022-10-24T04:54:56.856Z,54.68
2022-10-24T04:57:24.113Z,55.36
2022-10-24T04:59:51.368Z,55.07
2022-10-24T05:02:18.865Z,55.17
2022-10-24T05:04:46.165Z,55.92
2022-10-24T05:07:13.459Z,56.33
2022-10-24T05:09:40.824Z,56.19
2022-10-24T05:12:08.337Z,56.00
2022-10-24T05:14:35.675Z,56.81
2022-10-24T05:17:03.116Z,56.24
2022-10-24T05:19:30.562Z,56.30
2022-10-24T05:21:57.920Z,55.97
2022-10-24T05:24:25.726Z,56.12
2022-10-24T05:26:52.980Z,55.37
2022-10-24T05:29:20.232Z,55.07
2022-10-24T05:31:47.573Z,54.75
2022-10-24T05:34:14.889Z,54.07
2022-10-24T05:36:42.259Z,54.33
2022-10-24T05:39:09.602Z,53.68
2022-10-24T05:41:36.979Z,53.77
2022-10-24T05:44:04.512Z,54.49
2022-10-24T05:46:32.760Z,54.65
2022-10-24T05:49:01.782Z,54.75
2022-10-24T05:51:29.060Z,54.95
2022-10-24T05:53:57.171Z,55.15
2022-10-24T05:56:24.960Z,55.23
2022-10-24T05:58:52.276Z,55.21
2022-10-24T06:01:19.592Z,55.61
2022-10-24T06:03:47.011Z,56.50
2022-10-24T06:06:14.317Z,56.94
2022-10-24T06:08:43.947Z,58.13
2022-10-24T06:11:12.848Z,58.07
2022-10-24T06:13:40.997Z,56.64
2022-10-24T06:16:10.578Z,59.22
2022-10-24T06:18:40.472Z,59.03
2022-10-24T06:21:10.587Z,59.10
2022-10-24T06:23:37.912Z,59.28
2022-10-24T06:26:11.972Z,60.23
2022-10-24T06:28:40.260Z,59.96
2022-10-24T06:31:11.053Z,59.93
2022-10-24T06:33:38.449Z,60.44
2022-10-24T06:36:09.470Z,60.72
2022-10-24T06:38:37.558Z,61.38
2022-10-24T06:41:11.339Z,60.79
2022-10-24T06:43:39.727Z,61.01
2022-10-24T06:46:16.313Z,61.38
2022-10-24T06:48:43.811Z,62.63
2022-10-24T06:51:18.773Z,65.24
2022-10-24T06:53:46.832Z,66.06
2022-10-24T06:56:14.660Z,64.17
2022-10-24T06:58:42.248Z,64.41
2022-10-24T07:01:18.132Z,66.08
2022-10-24T07:03:46.621Z,66.88
2022-10-24T07:06:24.755Z,67.07
2022-10-24T07:08:59.808Z,66.98
2022-10-24T07:11:31.537Z,67.64
2022-10-24T07:14:01.612Z,69.81
2022-10-24T07:16:30.255Z,69.89
2022-10-24T07:18:57.645Z,68.55
2022-10-24T07:21:33.356Z,68.37
2022-10-24T07:24:01.352Z,69.92
2022-10-24T07:26:30.375Z,69.16
2022-10-24T07:31:34.564Z,70.93
2022-10-24T07:34:06.702Z,70.74
2022-10-24T07:36:34.004Z,70.90
2022-10-24T07:39:01.896Z,70.82
2022-10-24T07:41:32.978Z,71.14
2022-10-24T07:44:04.412Z,70.97
2022-10-24T07:46:31.977Z,72.67
2022-10-24T07:48:59.356Z,72.95
2022-10-24T07:51:28.556Z,72.59
2022-10-24T07:53:58.769Z,72.00
2022-10-24T07:56:26.857Z,71.90
2022-10-24T07:58:56.080Z,72.54
2022-10-24T08:01:26.826Z,74.05
2022-10-24T08:03:56.168Z,73.09
2022-10-24T08:06:30.995Z,71.66
2022-10-24T08:08:58.629Z,73.03
2022-10-24T08:11:28.996Z,72.49
2022-10-24T08:14:00.461Z,71.90
2022-10-24T08:16:28.113Z,70.74
2022-10-24T08:18:58.225Z,70.87
2022-10-24T08:21:26.807Z,71.47
2022-10-24T08:23:55.874Z,70.89
2022-10-24T08:26:26.278Z,69.84
2022-10-24T08:28:55.481Z,70.69
2022-10-24T08:31:26.365Z,69.37
2022-10-24T08:33:55.886Z,70.10
2022-10-24T08:36:32.356Z,70.61
2022-10-24T08:39:01.461Z,71.02
2022-10-24T08:41:43.719Z,71.36
2022-10-24T08:44:32.755Z,71.59
2022-10-24T08:48:06.848Z,71.65
2022-10-24T08:50:36.748Z,72.00
2022-10-24T08:53:32.016Z,71.91
2022-10-24T08:56:04.121Z,72.53
2022-10-24T08:58:46.542Z,72.35
2022-10-24T09:02:01.998Z,72.82
2022-10-24T09:04:56.157Z,72.58
2022-10-24T09:10:42.729Z,73.77
2022-10-24T09:13:17.178Z,72.72
2022-10-24T09:15:47.603Z,72.98
2022-10-24T09:18:41.135Z,72.65
2022-10-24T09:21:15.672Z,72.84
2022-10-24T09:23:43.730Z,73.28
2022-10-24T09:26:38.323Z,73.84
2022-10-24T09:29:05.726Z,74.57
2022-10-24T09:31:33.129Z,74.86
2022-10-24T09:34:01.196Z,75.37
2022-10-24T09:36:30.705Z,75.69
2022-10-24T09:39:14.224Z,75.41
2022-10-24T09:41:47.407Z,75.73
2022-10-24T09:44:44.045Z,75.41
2022-10-24T09:47:29.393Z,74.53
2022-10-24T09:49:57.161Z,74.21
2022-10-24T09:52:29.559Z,75.04
2022-10-24T09:55:24.215Z,74.67
2022-10-24T09:58:00.182Z,74.67
2022-10-24T10:00:35.256Z,74.41
2022-10-24T10:03:23.930Z,75.12
2022-10-24T10:06:04.889Z,74.45
2022-10-24T10:08:36.573Z,75.12
2022-10-24T10:11:13.757Z,73.67
2022-10-24T10:13:54.877Z,74.96
2022-10-24T10:17:02.798Z,74.94
2022-10-24T10:19:45.861Z,74.62
2022-10-24T10:22:32.169Z,72.83
2022-10-24T10:25:01.030Z,72.50
2022-10-24T10:27:41.048Z,73.91
2022-10-24T10:30:17.259Z,71.77
2022-10-24T10:33:56.381Z,72.06
2022-10-24T10:36:48.380Z,72.71
2022-10-24T10:39:55.561Z,71.58
2022-10-24T10:43:21.332Z,71.33
2022-10-24T10:46:35.445Z,71.85
2022-10-24T10:49:39.981Z,72.09
2022-10-24T10:52:49.392Z,73.15
2022-10-24T10:55:44.414Z,71.88
2022-10-24T10:59:14.318Z,71.88
2022-10-24T11:02:28.558Z,72.75
2022-10-24T11:06:21.106Z,72.90
2022-10-24T11:09:29.630Z,72.05
2022-10-24T11:12:42.928Z,71.93
2022-10-24T11:15:31.176Z,71.68
2022-10-24T11:18:31.630Z,71.61
2022-10-24T11:21:11.128Z,71.75
2022-10-24T11:24:02.614Z,71.43
2022-10-24T11:26:53.815Z,72.32
2022-10-24T11:29:54.552Z,71.92
2022-10-24T11:32:36.885Z,72.34
2022-10-24T11:35:34.661Z,71.67
2022-10-24T11:38:23.101Z,70.97
2022-10-24T11:41:01.008Z,70.75
2022-10-24T11:43:44.238Z,70.63
2022-10-24T11:46:32.931Z,70.98
2022-10-24T11:49:32.999Z,70.82
2022-10-24T11:52:27.089Z,71.09
2022-10-24T11:55:16.510Z,70.18
2022-10-24T11:57:59.458Z,71.03
2022-10-24T12:01:21.025Z,69.68
2022-10-24T12:04:35.442Z,69.55
2022-10-24T12:07:32.984Z,69.58
2022-10-24T12:10:54.554Z,69.87
2022-10-24T12:13:53.035Z,69.85
2022-10-24T12:17:06.345Z,69.18
2022-10-24T12:19:34.197Z,69.34
2022-10-24T12:22:06.152Z,69.48
2022-10-24T12:24:38.993Z,70.00
2022-10-24T12:27:21.480Z,70.12
2022-10-24T12:30:08.938Z,69.67
2022-10-24T12:32:46.068Z,69.58
2022-10-24T12:35:46.625Z,69.09
2022-10-24T12:38:27.700Z,69.45
2022-10-24T12:41:33.092Z,69.54
2022-10-24T12:44:34.197Z,69.74
2022-10-24T12:47:33.752Z,68.90
2022-10-24T12:50:22.696Z,70.10
2022-10-24T12:53:16.248Z,70.29
2022-10-24T12:55:43.268Z,70.31
2022-10-24T12:58:39.238Z,70.05
2022-10-24T13:01:37.603Z,70.07
2022-10-24T13:05:06.504Z,70.00
2022-10-24T13:08:01.239Z,69.90
2022-10-24T13:11:44.222Z,69.88
2022-10-24T13:14:55.836Z,69.71
2022-10-24T13:18:13.918Z,69.61
2022-10-24T13:20:52.057Z,69.08
2022-10-24T13:23:28.352Z,69.07
2022-10-24T13:25:58.717Z,69.68
2022-10-24T13:28:25.752Z,69.35
2022-10-24T13:30:59.069Z,68.93
2022-10-24T13:33:32.421Z,68.75
2022-10-24T13:36:18.143Z,68.48
2022-10-24T13:39:15.890Z,67.86
2022-10-24T13:41:55.773Z,67.40
2022-10-24T13:44:49.269Z,66.65
2022-10-24T13:47:48.784Z,67.66
2022-10-24T13:50:28.854Z,67.94
2022-10-24T13:53:21.013Z,68.36
2022-10-24T13:55:54.348Z,68.19
2022-10-24T13:58:31.599Z,68.42
2022-10-24T14:01:30.331Z,68.17
2022-10-24T14:04:00.552Z,68.21
2022-10-24T14:06:33.729Z,68.15
2022-10-24T14:09:10.698Z,67.99
2022-10-24T14:11:47.990Z,67.91
2022-10-24T14:14:40.129Z,68.08
2022-10-24T14:17:36.417Z,66.52
2022-10-24T14:20:09.755Z,66.14
2022-10-24T14:22:41.514Z,65.48
2022-10-24T14:25:38.605Z,65.29
2022-10-24T14:28:21.608Z,65.71
2022-10-24T14:31:18.461Z,66.10
2022-10-24T14:33:50.484Z,64.72
2022-10-24T14:36:23.105Z,64.92
2022-10-24T14:38:55.294Z,64.21
2022-10-24T14:41:44.201Z,63.27
2022-10-24T14:44:16.605Z,63.19
2022-10-24T14:46:47.803Z,63.15
2022-10-24T14:49:27.176Z,62.53
2022-10-24T14:52:10.769Z,62.71
2022-10-24T14:55:03.219Z,62.49
2022-10-24T14:57:34.384Z,62.21
2022-10-24T15:00:19.779Z,62.24
2022-10-24T15:02:50.969Z,62.14
2022-10-24T15:05:20.749Z,61.50
2022-10-24T15:08:27.840Z,62.04
2022-10-24T15:11:24.554Z,61.27
2022-10-24T15:14:06.190Z,61.12
2022-10-24T15:16:40.721Z,60.14
2022-10-24T15:19:18.107Z,58.71
2022-10-24T15:21:47.000Z,58.88
2022-10-24T15:24:26.541Z,58.75
2022-10-24T15:27:13.011Z,59.94
2022-10-24T15:29:41.130Z,57.18
2022-10-24T15:32:11.397Z,54.68
2022-10-24T15:34:38.676Z,54.56
2022-10-24T15:37:07.712Z,54.46
2022-10-24T15:39:34.997Z,56.56
2022-10-24T15:44:49.720Z,54.05
2022-10-24T15:47:17.078Z,53.82
2022-10-24T15:49:44.448Z,54.32
2022-10-24T15:52:16.631Z,54.28
2022-10-24T15:54:44.329Z,54.82
2022-10-24T15:57:19.024Z,54.80
2022-10-24T15:59:46.364Z,55.06
2022-10-24T16:02:24.500Z,55.68
2022-10-24T16:04:51.856Z,55.10
2022-10-24T16:07:19.692Z,55.42
2022-10-24T16:09:46.957Z,55.79
2022-10-24T16:12:14.367Z,55.56
2022-10-24T16:14:41.640Z,55.91
2022-10-24T16:17:09.032Z,55.65
2022-10-24T16:19:36.296Z,56.00
2022-10-24T16:22:03.738Z,56.46
2022-10-24T16:24:31.012Z,55.68
2022-10-24T16:26:58.375Z,55.70
2022-10-24T16:29:25.704Z,56.39
2022-10-24T16:31:53.149Z,56.39
2022-10-24T16:34:20.521Z,56.66
2022-10-24T16:36:47.780Z,56.93
2022-10-24T16:39:16.408Z,57.00
2022-10-24T16:41:46.334Z,56.45
2022-10-24T16:44:14.729Z,56.79
2022-10-24T16:46:41.996Z,56.99
2022-10-24T16:49:09.260Z,56.74
2022-10-24T16:51:40.480Z,57.36
2022-10-24T16:54:11.497Z,57.55
2022-10-24T16:56:38.817Z,58.03
2022-10-24T16:59:06.080Z,57.98
2022-10-24T17:01:33.495Z,58.25
2022-10-24T17:04:01.808Z,58.19
2022-10-24T17:06:29.129Z,58.34
2022-10-24T17:08:57.185Z,58.24
2022-10-24T17:14:14.288Z,58.82
2022-10-24T17:16:43.749Z,59.14
2022-10-24T17:19:16.221Z,59.35
2022-10-24T17:21:50.977Z,58.53
2022-10-24T17:24:25.684Z,58.37
2022-10-24T17:26:54.225Z,58.25
2022-10-24T17:29:33.584Z,58.65
2022-10-24T17:32:01.306Z,58.55
2022-10-24T17:34:29.556Z,58.85
2022-10-24T17:37:16.144Z,58.67
2022-10-24T17:40:02.893Z,59.03
2022-10-24T17:42:31.530Z,59.18
2022-10-24T17:44:59.083Z,58.74
2022-10-24T17:47:26.742Z,58.77
2022-10-24T17:49:54.019Z,58.78
2022-10-24T17:52:24.925Z,58.54
2022-10-24T17:54:52.510Z,58.69
2022-10-24T17:57:19.859Z,58.78
2022-10-24T17:59:47.117Z,59.55
2022-10-24T18:02:15.233Z,59.90
2022-10-24T18:04:44.809Z,60.71
2022-10-24T18:07:12.252Z,61.32
2022-10-24T18:09:40.121Z,61.75
2022-10-24T18:12:07.723Z,61.26
2022-10-24T18:14:37.511Z,61.73
2022-10-24T18:17:05.092Z,61.83
2022-10-24T18:19:32.468Z,61.64
2022-10-24T18:21:59.732Z,61.50
2022-10-24T18:24:27.011Z,61.79
2022-10-24T18:26:54.276Z,62.77
2022-10-24T18:29:21.582Z,62.19
2022-10-24T18:31:48.883Z,62.45
2022-10-24T18:34:16.169Z,62.58
2022-10-24T18:36:43.427Z,62.49
2022-10-24T18:39:10.787Z,62.79
2022-10-24T18:42:05.518Z,62.77
2022-10-24T18:44:35.293Z,62.86
2022-10-24T18:47:08.422Z,62.29
2022-10-24T18:49:36.647Z,62.42
2022-10-24T18:52:10.110Z,62.76
2022-10-24T18:54:58.584Z,63.97
2022-10-24T18:57:34.450Z,63.70
2022-10-24T19:00:01.955Z,63.86
2022-10-24T19:03:30.619Z,64.36
2022-10-24T19:06:26.136Z,64.90
2022-10-24T19:08:53.725Z,64.86
2022-10-24T19:11:23.190Z,64.96
2022-10-24T19:13:50.698Z,65.10
2022-10-24T19:16:28.870Z,65.23
2022-10-24T19:19:01.058Z,65.80
2022-10-24T19:21:28.627Z,66.16
2022-10-24T19:23:55.915Z,65.73
2022-10-24T19:26:23.449Z,66.43
2022-10-24T19:28:50.750Z,66.92
2022-10-24T19:31:18.015Z,65.82
2022-10-24T19:33:45.280Z,65.85
2022-10-24T19:36:15.568Z,65.95
2022-10-24T19:38:45.636Z,65.90
2022-10-24T19:41:12.968Z,65.80
2022-10-24T19:43:40.309Z,65.83
2022-10-24T19:46:19.293Z,66.22
2022-10-24T19:48:49.678Z,66.04
2022-10-24T19:51:20.093Z,66.70
2022-10-24T19:53:50.367Z,67.23
2022-10-24T19:56:26.256Z,67.55
2022-10-24T19:58:55.877Z,68.16
2022-10-24T20:01:28.032Z,67.88
2022-10-24T20:03:57.042Z,67.91
2022-10-24T20:06:27.825Z,68.14
2022-10-24T20:08:55.087Z,68.65
2022-10-24T20:11:23.747Z,68.57
2022-10-24T20:13:51.018Z,68.13
2022-10-24T20:16:18.537Z,68.02
2022-10-24T20:18:46.722Z,69.23
2022-10-24T20:21:18.272Z,69.23
2022-10-24T20:23:48.456Z,68.30
2022-10-24T20:26:26.760Z,68.69
2022-10-24T20:28:56.029Z,68.66
2022-10-24T20:31:39.591Z,68.81
2022-10-24T20:34:12.051Z,69.04
2022-10-24T20:36:44.658Z,69.09
2022-10-24T20:39:13.611Z,68.77
2022-10-24T20:41:42.211Z,68.82
2022-10-24T20:44:11.184Z,69.39
2022-10-24T20:46:38.523Z,69.17
2022-10-24T20:49:06.152Z,70.25
2022-10-24T20:51:33.403Z,69.76
2022-10-24T20:54:00.925Z,70.16
2022-10-24T20:56:28.552Z,69.59
2022-10-24T20:58:56.604Z,69.55
2022-10-24T21:01:28.707Z,69.69
2022-10-24T21:03:58.179Z,69.00
2022-10-24T21:06:33.323Z,69.52
2022-10-24T21:09:07.065Z,69.46
2022-10-24T21:11:36.154Z,69.71
2022-10-24T21:14:10.967Z,69.52
2022-10-24T21:16:45.186Z,69.19
2022-10-24T21:19:12.537Z,69.22
2022-10-24T21:21:40.573Z,71.38
2022-10-24T21:24:09.408Z,73.17
2022-10-24T21:26:40.046Z,72.22
2022-10-24T21:29:27.944Z,73.51
2022-10-24T21:31:56.322Z,74.71
2022-10-24T21:34:23.838Z,74.18
2022-10-24T21:36:51.176Z,73.67
2022-10-24T21:39:19.062Z,74.67
2022-10-24T21:41:46.533Z,74.15
2022-10-24T21:44:14.514Z,74.14
2022-10-24T21:46:42.248Z,73.11
2022-10-24T21:49:10.411Z,72.90
2022-10-24T21:51:41.112Z,73.09
2022-10-24T21:54:24.271Z,73.99
2022-10-24T21:56:51.861Z,72.91
2022-10-24T21:59:22.121Z,73.11
2022-10-24T22:01:52.058Z,73.40
2022-10-24T22:04:20.453Z,73.67
2022-10-24T22:06:50.695Z,73.17
2022-10-24T22:09:26.152Z,73.90
2022-10-24T22:11:57.611Z,73.54
2022-10-24T22:14:25.337Z,74.89
2022-10-24T22:16:53.332Z,74.26
2022-10-24T22:19:21.050Z,73.80
2022-10-24T22:21:51.354Z,74.18
2022-10-24T22:24:23.797Z,75.03
2022-10-24T22:26:52.753Z,75.46
2022-10-24T22:29:24.054Z,75.40
2022-10-24T22:31:54.147Z,75.38
2022-10-24T22:34:25.845Z,75.37
2022-10-24T22:37:15.787Z,75.08
2022-10-24T22:39:43.513Z,74.87
2022-10-24T22:42:14.733Z,75.23
2022-10-24T22:44:45.627Z,74.92
2022-10-24T22:47:55.162Z,75.78
2022-10-24T22:50:46.387Z,75.37
2022-10-24T22:53:19.658Z,74.80
2022-10-24T22:55:55.303Z,74.60
2022-10-24T22:58:23.312Z,74.38
2022-10-24T23:01:21.136Z,74.16
2022-10-24T23:04:26.277Z,74.52
2022-10-24T23:07:27.666Z,74.41
2022-10-24T23:09:55.547Z,74.31
2022-10-24T23:12:24.459Z,74.48
2022-10-24T23:14:53.763Z,75.07
2022-10-24T23:17:30.936Z,74.95
2022-10-24T23:19:59.289Z,74.72
2022-10-24T23:22:33.308Z,74.15
2022-10-24T23:25:02.321Z,74.74
2022-10-24T23:27:43.273Z,74.51
2022-10-24T23:30:23.355Z,74.19
2022-10-24T23:32:51.964Z,74.31
2022-10-24T23:35:21.839Z,74.50
2022-10-24T23:37:53.744Z,74.50
2022-10-24T23:40:34.697Z,75.33
2022-10-24T23:43:05.036Z,74.57
2022-10-24T23:45:50.349Z,74.12
2022-10-24T23:49:06.773Z,74.66
2022-10-24T23:52:12.755Z,74.89
2022-10-24T23:54:40.832Z,75.31
2022-10-24T23:57:19.681Z,74.70
2022-10-24T23:59:47.392Z,74.67
